Time;durP1;ratioP1;P1;durP2;ratioP2;P2;SDS_P1;SDS_P2;PMS_P1;PMS_P2;Temp;Humidity;BMP_temperature;BMP_pressure;BME280_temperature;BME280_humidity;BME280_pressure;Samples;Min_cycle;Max_cycle;Signal;HPM_P1;HPM_P2
2024/01/19 00:01:22;;;;;;;0.60;0.60;;;;;;;-3.25;100.00;101251.31;5095086;28;20026;-57
2024/01/19 00:03:48;;;;;;;0.65;0.65;;;;;;;-3.27;100.00;101254.44;5095478;28;20031;-57
2024/01/19 00:06:14;;;;;;;0.70;0.70;;;;;;;-3.30;100.00;101255.06;5094349;28;20420;-57
2024/01/19 00:08:40;;;;;;;0.60;0.60;;;;;;;-3.32;100.00;101254.91;5095327;28;20077;-57
2024/01/19 00:11:05;;;;;;;0.60;0.60;;;;;;;-3.33;100.00;101250.63;5095305;28;20024;-57
2024/01/19 00:13:31;;;;;;;0.60;0.60;;;;;;;-3.32;100.00;101257.44;5094045;28;20028;-57
2024/01/19 00:15:56;;;;;;;0.60;0.60;;;;;;;-3.31;100.00;101259.19;5094988;28;20020;-57
2024/01/19 00:18:26;;;;;;;0.60;0.60;;;;;;;-3.34;100.00;101253.88;5094640;28;20020;-57
2024/01/19 00:20:51;;;;;;;0.70;0.70;;;;;;;-3.33;100.00;101250.63;5094411;28;20020;-57
2024/01/19 00:23:16;;;;;;;0.60;0.60;;;;;;;-3.33;100.00;101249.72;5094186;28;20111;-57
2024/01/19 00:25:41;;;;;;;0.60;0.60;;;;;;;-3.36;100.00;101265.44;5094897;28;20020;-57
2024/01/19 00:28:07;;;;;;;0.57;0.57;;;;;;;-3.35;100.00;101258.78;5094019;28;20026;-57
2024/01/19 00:30:32;;;;;;;0.60;0.60;;;;;;;-3.39;100.00;101272.72;5094309;28;20035;-57
2024/01/19 00:32:57;;;;;;;0.60;0.60;;;;;;;-3.38;100.00;101272.00;5094922;28;20034;-57
2024/01/19 00:35:23;;;;;;;0.60;0.60;;;;;;;-3.43;100.00;101277.34;5093614;28;20034;-57
2024/01/19 00:37:48;;;;;;;0.70;0.70;;;;;;;-3.38;100.00;101289.63;5094929;28;20024;-57
2024/01/19 00:40:14;;;;;;;0.60;0.60;;;;;;;-3.35;100.00;101284.88;5094386;28;20036;-57
2024/01/19 00:42:40;;;;;;;0.70;0.70;;;;;;;-3.29;100.00;101282.03;5093381;28;20048;-57
2024/01/19 00:45:07;;;;;;;0.68;0.68;;;;;;;-3.33;100.00;101280.88;5093987;28;20465;-57
2024/01/19 00:47:34;;;;;;;0.60;0.60;;;;;;;-3.28;100.00;101287.97;5094275;28;20063;-57
2024/01/19 00:49:59;;;;;;;0.60;0.60;;;;;;;-3.27;100.00;101285.56;5093677;28;20029;-57
2024/01/19 00:52:25;;;;;;;0.57;0.57;;;;;;;-3.25;100.00;101288.22;5094116;28;20028;-57
2024/01/19 00:54:50;;;;;;;0.70;0.70;;;;;;;-3.17;100.00;101302.44;5094275;28;20028;-57
2024/01/19 00:57:16;;;;;;;0.70;0.70;;;;;;;-3.07;100.00;101310.09;5093417;28;20016;-58
2024/01/19 00:59:41;;;;;;;0.70;0.70;;;;;;;-3.01;100.00;101303.09;5094285;28;20377;-57
2024/01/19 01:02:06;;;;;;;0.60;0.60;;;;;;;-2.94;100.00;101302.03;5093561;28;20027;-57
2024/01/19 01:04:31;;;;;;;0.60;0.60;;;;;;;-2.90;100.00;101298.16;5093663;28;20050;-57
2024/01/19 01:06:57;;;;;;;0.70;0.70;;;;;;;-2.85;100.00;101307.03;5094145;28;20043;-57
2024/01/19 01:09:22;;;;;;;0.60;0.60;;;;;;;-2.84;100.00;101304.63;5092788;28;20052;-57
2024/01/19 01:11:47;;;;;;;0.60;0.60;;;;;;;-2.81;100.00;101302.38;5093926;28;20028;-57
2024/01/19 01:14:14;;;;;;;0.77;0.77;;;;;;;-2.81;100.00;101302.38;5093509;28;20020;-57
2024/01/19 01:16:40;;;;;;;0.70;0.70;;;;;;;-2.84;100.00;101299.59;5093138;28;20028;-57
2024/01/19 01:19:05;;;;;;;0.60;0.60;;;;;;;-2.87;100.00;101303.47;5093226;28;20024;-57
2024/01/19 01:21:30;;;;;;;0.60;0.60;;;;;;;-2.86;100.00;101306.13;5093386;28;20023;-57
2024/01/19 01:23:55;;;;;;;0.63;0.63;;;;;;;-2.84;100.00;101303.72;5093148;28;20028;-58
2024/01/19 01:26:21;;;;;;;0.68;0.68;;;;;;;-2.83;100.00;101308.94;5093147;28;20020;-57
2024/01/19 01:28:46;;;;;;;0.70;0.70;;;;;;;-2.86;100.00;101306.13;5093540;28;20032;-57
2024/01/19 01:31:11;;;;;;;0.60;0.60;;;;;;;-2.87;100.00;101311.03;5092832;28;20460;-57
2024/01/19 01:33:37;;;;;;;0.60;0.60;;;;;;;-2.96;100.00;101316.13;5093756;28;20024;-57
2024/01/19 01:36:02;;;;;;;0.60;0.60;;;;;;;-2.99;100.00;101316.72;5093146;28;20020;-57
2024/01/19 01:38:27;;;;;;;0.70;0.70;;;;;;;-2.95;100.00;101322.06;5092503;28;20468;-57
2024/01/19 01:40:53;;;;;;;0.70;0.70;;;;;;;-2.96;100.00;101321.16;5093460;28;20024;-57
2024/01/19 01:43:23;;;;;;;0.60;0.60;;;;;;;-2.92;100.00;101319.81;5092811;28;20539;-57
2024/01/19 01:45:49;;;;;;;0.60;0.60;;;;;;;-2.90;100.00;101318.34;5092762;28;20074;-57
2024/01/19 01:48:15;;;;;;;0.70;0.70;;;;;;;-2.91;100.00;101319.94;5093118;28;20021;-57
2024/01/19 01:50:40;;;;;;;0.65;0.65;;;;;;;-2.92;100.00;101322.34;5092902;28;20035;-57
2024/01/19 01:53:06;;;;;;;0.60;0.60;;;;;;;-3.00;100.00;101326.69;5091772;28;20024;-57
2024/01/19 01:55:31;;;;;;;0.52;0.52;;;;;;;-3.03;100.00;101324.75;5092738;28;20052;-57
2024/01/19 01:57:57;;;;;;;0.60;0.60;;;;;;;-3.07;100.00;101325.22;5092278;28;20020;-57
2024/01/19 02:00:23;;;;;;;0.68;0.68;;;;;;;-3.14;100.00;101335.50;5091752;28;20088;-57
2024/01/19 02:02:49;;;;;;;0.55;0.55;;;;;;;-3.18;100.00;101341.00;5093312;28;20020;-57
2024/01/19 02:05:14;;;;;;;0.60;0.60;;;;;;;-3.26;100.00;101337.78;5092292;28;20031;-57
2024/01/19 02:07:40;;;;;;;0.70;0.70;;;;;;;-3.31;100.00;101337.31;5092793;28;20016;-57
2024/01/19 02:10:06;;;;;;;0.60;0.60;;;;;;;-3.32;100.00;101338.09;5092859;28;20495;-57
2024/01/19 02:12:32;;;;;;;0.63;0.63;;;;;;;-3.40;100.00;101345.69;5092065;28;20028;-57
2024/01/19 02:14:58;;;;;;;0.63;0.63;;;;;;;-3.42;100.00;101342.13;5092971;28;20543;-57
2024/01/19 02:17:25;;;;;;;0.60;0.60;;;;;;;-3.53;100.00;101353.72;5092795;28;20027;-57
2024/01/19 02:19:50;;;;;;;0.70;0.70;;;;;;;-3.53;100.00;101354.59;5092356;28;20027;-57
2024/01/19 02:22:16;;;;;;;0.70;0.70;;;;;;;-3.50;100.00;101362.47;5092579;28;20109;-57
2024/01/19 02:24:41;;;;;;;0.70;0.70;;;;;;;-3.42;100.00;101367.31;5092816;28;20077;-57
2024/01/19 02:27:08;;;;;;;0.63;0.63;;;;;;;-3.41;100.00;101367.47;5091994;28;20085;-57
2024/01/19 02:29:33;;;;;;;0.70;0.70;;;;;;;-3.42;100.00;101365.72;5092658;28;20034;-57
2024/01/19 02:31:59;;;;;;;0.60;0.60;;;;;;;-3.40;100.00;101369.25;5092929;28;20115;-57
2024/01/19 02:34:24;;;;;;;0.60;0.60;;;;;;;-3.39;100.00;101370.16;5091651;28;20031;-57
2024/01/19 02:36:49;;;;;;;0.60;0.60;;;;;;;-3.42;100.00;101365.72;5092821;28;20101;-57
2024/01/19 02:39:15;;;;;;;0.60;0.60;;;;;;;-3.37;100.00;101364.50;5092533;28;20024;-57
2024/01/19 02:41:41;;;;;;;0.60;0.60;;;;;;;-3.33;100.00;101371.59;5091560;28;20032;-58
2024/01/19 02:44:06;;;;;;;0.60;0.60;;;;;;;-3.32;100.00;101383.47;5092793;28;20055;-57
2024/01/19 02:46:32;;;;;;;0.70;0.70;;;;;;;-3.26;100.00;101392.34;5092470;28;20069;-57
2024/01/19 02:48:57;;;;;;;0.70;0.70;;;;;;;-3.28;100.00;101388.78;5096006;28;20058;-57
2024/01/19 02:51:22;;;;;;;0.60;0.60;;;;;;;-3.29;100.00;101390.44;5096577;28;20438;-57
2024/01/19 02:53:48;;;;;;;0.70;0.70;;;;;;;-3.32;100.00;101398.59;5096680;28;20057;-57
2024/01/19 02:56:13;;;;;;;0.60;0.60;;;;;;;-3.27;100.00;101393.97;5095537;28;20020;-57
2024/01/19 02:58:38;;;;;;;0.65;0.65;;;;;;;-3.22;100.00;101396.94;5096782;28;20027;-57
2024/01/19 03:01:04;;;;;;;0.70;0.70;;;;;;;-3.22;100.00;101399.44;5096554;28;20031;-57
2024/01/19 03:03:29;;;;;;;0.60;0.60;;;;;;;-3.20;100.00;101403.88;5095666;28;20371;-57
2024/01/19 03:05:54;;;;;;;0.60;0.60;;;;;;;-3.16;100.00;101410.13;5096668;28;20423;-57
2024/01/19 03:08:21;;;;;;;0.60;0.60;;;;;;;-3.15;100.00;101406.81;5096120;28;20453;-57
2024/01/19 03:10:47;;;;;;;0.60;0.60;;;;;;;-3.08;100.00;101409.19;5095598;28;20020;-57
2024/01/19 03:13:12;;;;;;;0.70;0.70;;;;;;;-3.11;100.00;101403.88;5096281;28;20020;-57
2024/01/19 03:15:37;;;;;;;0.60;0.60;;;;;;;-3.11;100.00;101403.88;5095915;28;20035;-57
2024/01/19 03:18:03;;;;;;;0.60;0.60;;;;;;;-3.04;100.00;101406.19;5095647;28;20383;-57
2024/01/19 03:20:29;;;;;;;0.60;0.60;;;;;;;-3.08;100.00;101409.19;5096103;28;20115;-57
2024/01/19 03:22:54;;;;;;;0.70;0.70;;;;;;;-3.07;100.00;101405.94;5095382;28;20030;-57
2024/01/19 03:25:19;;;;;;;0.60;0.60;;;;;;;-3.06;100.00;101406.81;5095544;28;20093;-57
2024/01/19 03:27:44;;;;;;;0.70;0.70;;;;;;;-3.10;100.00;101410.66;5096293;28;20025;-57
2024/01/19 03:30:10;;;;;;;0.70;0.70;;;;;;;-3.06;100.00;101416.88;5094894;28;20107;-57
2024/01/19 03:32:36;;;;;;;0.70;0.70;;;;;;;-3.04;100.00;101415.41;5096183;28;20024;-57
2024/01/19 03:35:01;;;;;;;0.60;0.60;;;;;;;-3.05;100.00;101418.66;5095917;28;20165;-57
2024/01/19 03:37:27;;;;;;;0.70;0.70;;;;;;;-3.00;100.00;101415.81;5095008;28;20028;-57
2024/01/19 03:39:53;;;;;;;0.68;0.68;;;;;;;-3.04;100.00;101411.25;5095593;28;20016;-57
2024/01/19 03:42:18;;;;;;;0.70;0.70;;;;;;;-3.03;100.00;101418.06;5094893;28;20050;-57
2024/01/19 03:44:43;;;;;;;0.55;0.55;;;;;;;-3.02;100.00;101412.28;5093804;28;20028;-57
2024/01/19 03:47:09;;;;;;;0.70;0.70;;;;;;;-3.05;100.00;101414.50;5094395;28;20020;-57
2024/01/19 03:49:34;;;;;;;0.65;0.65;;;;;;;-2.98;100.00;101424.44;5094194;28;20053;-57
2024/01/19 03:52:07;;;;;;;0.60;0.60;;;;;;;-3.02;100.00;101421.47;5093696;28;20054;-57
2024/01/19 03:54:33;;;;;;;0.70;0.70;;;;;;;-3.05;100.00;101426.22;5094060;28;20111;-57
2024/01/19 03:57:00;;;;;;;0.70;0.70;;;;;;;-3.09;100.00;101427.56;5094292;28;20472;-58
2024/01/19 03:59:25;;;;;;;0.70;0.70;;;;;;;-3.07;100.00;101425.19;5093324;28;20020;-57
2024/01/19 04:01:51;;;;;;;0.63;0.63;;;;;;;-3.04;100.00;101426.38;5094293;28;20527;-57
2024/01/19 04:04:16;;;;;;;0.60;0.60;;;;;;;-3.06;100.00;101422.84;5094028;28;20050;-57
2024/01/19 04:06:42;;;;;;;0.60;0.60;;;;;;;-3.06;100.00;101430.41;5093254;28;20070;-57
2024/01/19 04:09:07;;;;;;;0.70;0.70;;;;;;;-3.06;100.00;101424.44;5093951;28;20040;-57
2024/01/19 04:11:34;;;;;;;0.70;0.70;;;;;;;-3.05;100.00;101426.22;5093807;28;20030;-57
2024/01/19 04:13:59;;;;;;;0.70;0.70;;;;;;;-3.06;100.00;101432.94;5093422;28;20028;-57
2024/01/19 04:16:24;;;;;;;0.60;0.60;;;;;;;-3.06;100.00;101427.88;5093952;28;20021;-57
2024/01/19 04:18:50;;;;;;;0.60;0.60;;;;;;;-3.04;100.00;101426.38;5093806;28;20424;-57
2024/01/19 04:21:15;;;;;;;0.60;0.60;;;;;;;-3.04;100.00;101436.47;5093287;28;20040;-58
2024/01/19 04:23:40;;;;;;;0.63;0.63;;;;;;;-3.03;100.00;101445.81;5094085;28;20417;-57
2024/01/19 04:26:05;;;;;;;0.63;0.63;;;;;;;-3.00;100.00;101448.59;5093104;28;20028;-57
2024/01/19 04:28:31;;;;;;;0.70;0.70;;;;;;;-3.09;100.00;101450.28;5093231;28;20456;-58
2024/01/19 04:30:56;;;;;;;0.60;0.60;;;;;;;-3.11;100.00;101446.72;5094045;28;20028;-57
2024/01/19 04:33:21;;;;;;;0.70;0.70;;;;;;;-3.06;100.00;101453.09;5092837;28;20020;-57
2024/01/19 04:35:46;;;;;;;0.70;0.70;;;;;;;-3.03;100.00;101453.38;5093662;28;20035;-57
2024/01/19 04:38:12;;;;;;;0.60;0.60;;;;;;;-3.01;100.00;101449.38;5093300;28;20028;-58
2024/01/19 04:40:37;;;;;;;0.68;0.68;;;;;;;-2.98;100.00;101461.38;5093158;28;20029;-57
2024/01/19 04:43:02;;;;;;;0.70;0.70;;;;;;;-3.05;100.00;101464.06;5057735;28;1035949;-57
2024/01/19 04:45:28;;;;;;;0.60;0.60;;;;;;;-3.04;100.00;101463.31;5094458;28;20044;-57
2024/01/19 04:47:53;;;;;;;0.70;0.70;;;;;;;-3.07;100.00;101479.06;5093865;28;20038;-57
2024/01/19 04:50:19;;;;;;;0.65;0.65;;;;;;;-3.07;100.00;101475.63;5094099;28;20030;-57
2024/01/19 04:52:44;;;;;;;0.60;0.60;;;;;;;-3.11;100.00;101483.66;5094409;28;20058;-57
2024/01/19 04:55:09;;;;;;;0.60;0.60;;;;;;;-3.13;100.00;101488.56;5093679;28;20051;-57
2024/01/19 04:57:34;;;;;;;0.55;0.55;;;;;;;-3.15;100.00;101492.53;5094409;28;20111;-58
2024/01/19 05:00:00;;;;;;;0.70;0.70;;;;;;;-3.19;100.00;101488.88;5094461;28;20036;-57
2024/01/19 05:02:25;;;;;;;0.70;0.70;;;;;;;-3.23;100.00;101489.28;5093269;28;20034;-57
2024/01/19 05:04:50;;;;;;;0.55;0.55;;;;;;;-3.25;100.00;101487.38;5094215;28;20069;-57
2024/01/19 05:07:16;;;;;;;0.60;0.60;;;;;;;-3.26;100.00;101488.16;5093773;28;20031;-57
2024/01/19 05:09:41;;;;;;;0.70;0.70;;;;;;;-3.28;100.00;101487.97;5092269;28;20032;-57
2024/01/19 05:12:06;;;;;;;0.70;0.70;;;;;;;-3.34;100.00;101488.28;5094189;28;20031;-57
2024/01/19 05:14:32;;;;;;;0.50;0.50;;;;;;;-3.31;100.00;101491.09;5093824;28;20042;-57
2024/01/19 05:16:57;;;;;;;0.60;0.60;;;;;;;-3.25;100.00;101505.03;5093372;28;20017;-58
2024/01/19 05:19:22;;;;;;;0.63;0.63;;;;;;;-3.33;100.00;101511.84;5093654;28;20095;-57
2024/01/19 05:21:48;;;;;;;0.70;0.70;;;;;;;-3.36;100.00;101506.53;5093733;28;20480;-57
2024/01/19 05:24:13;;;;;;;0.60;0.60;;;;;;;-3.28;100.00;101517.34;5092747;28;20020;-57
2024/01/19 05:26:38;;;;;;;0.60;0.60;;;;;;;-3.40;100.00;101515.41;5093704;28;20024;-57
2024/01/19 05:29:03;;;;;;;0.70;0.70;;;;;;;-3.41;100.00;101518.66;5093824;28;20035;-57
2024/01/19 05:31:29;;;;;;;0.70;0.70;;;;;;;-3.42;100.00;101516.00;5092705;28;20479;-57
2024/01/19 05:33:54;;;;;;;0.70;0.70;;;;;;;-3.43;100.00;101530.25;5093392;28;20054;-58
2024/01/19 05:36:20;;;;;;;0.70;0.70;;;;;;;-3.44;100.00;101537.69;5092520;28;20456;-57
2024/01/19 05:38:45;;;;;;;0.70;0.70;;;;;;;-3.38;100.00;101544.19;5093513;28;20028;-58
2024/01/19 05:41:11;;;;;;;0.60;0.60;;;;;;;-3.44;100.00;101552.81;5093450;28;20111;-57
2024/01/19 05:43:36;;;;;;;0.70;0.70;;;;;;;-3.45;100.00;101556.94;5092652;28;20135;-57
2024/01/19 05:46:01;;;;;;;0.55;0.55;;;;;;;-3.43;100.00;101560.50;5093527;28;20032;-57
2024/01/19 05:48:27;;;;;;;0.70;0.70;;;;;;;-3.42;100.00;101566.41;5093010;28;20089;-57
2024/01/19 05:50:53;;;;;;;0.70;0.70;;;;;;;-3.39;100.00;101574.28;5092456;28;20035;-57
2024/01/19 05:53:18;;;;;;;0.70;0.70;;;;;;;-3.35;100.00;101571.31;5092886;28;20488;-57
2024/01/19 05:55:43;;;;;;;0.70;0.70;;;;;;;-3.31;100.00;101579.31;5092696;28;20030;-57
2024/01/19 05:58:09;;;;;;;0.70;0.70;;;;;;;-3.28;100.00;101595.50;5091034;28;20161;-57
2024/01/19 06:00:34;;;;;;;0.70;0.70;;;;;;;-3.27;100.00;101607.38;5092727;28;20486;-57
2024/01/19 06:02:59;;;;;;;0.70;0.70;;;;;;;-3.24;100.00;101610.16;5092615;28;20024;-58
2024/01/19 06:05:24;;;;;;;0.70;0.70;;;;;;;-3.24;100.00;101617.72;5092008;28;20020;-58
2024/01/19 06:07:50;;;;;;;0.70;0.70;;;;;;;-3.21;100.00;101625.63;5093128;28;20544;-57
2024/01/19 06:10:15;;;;;;;0.50;0.50;;;;;;;-3.21;100.00;101630.66;5092227;28;20032;-57
2024/01/19 06:12:41;;;;;;;0.68;0.68;;;;;;;-3.20;100.00;101629.88;5092362;28;20027;-57
2024/01/19 06:15:06;;;;;;;0.70;0.70;;;;;;;-3.16;100.00;101635.38;5093270;28;20042;-57
2024/01/19 06:17:32;;;;;;;0.65;0.65;;;;;;;-3.16;100.00;101637.91;5092688;28;20042;-57
2024/01/19 06:19:57;;;;;;;0.60;0.60;;;;;;;-3.16;100.00;101644.59;5092179;28;20464;-57
2024/01/19 06:22:22;;;;;;;0.70;0.70;;;;;;;-3.16;100.00;101644.59;5092437;28;20107;-58
2024/01/19 06:24:54;;;;;;;0.60;0.60;;;;;;;-3.13;100.00;101652.44;5093094;28;20047;-57
2024/01/19 06:27:20;;;;;;;0.68;0.68;;;;;;;-3.12;100.00;101649.19;5092108;28;20051;-58
2024/01/19 06:29:46;;;;;;;0.75;0.75;;;;;;;-3.14;100.00;101650.66;5092836;28;20028;-57
2024/01/19 06:32:11;;;;;;;0.80;0.80;;;;;;;-3.15;100.00;101653.91;5092379;28;20085;-57
2024/01/19 06:34:39;;;;;;;0.70;0.70;;;;;;;-3.13;100.00;101662.53;5091991;28;20533;-57
2024/01/19 06:37:05;;;;;;;0.70;0.70;;;;;;;-3.17;100.00;101658.81;5092671;28;20082;-57
2024/01/19 06:39:30;;;;;;;0.63;0.63;;;;;;;-3.18;100.00;101658.69;5092146;28;20016;-57
2024/01/19 06:41:55;;;;;;;0.70;0.70;;;;;;;-3.21;100.00;101654.22;5092232;28;20392;-57
2024/01/19 06:44:21;;;;;;;0.77;0.77;;;;;;;-3.26;100.00;101669.66;5092501;28;20027;-57
2024/01/19 06:46:46;;;;;;;0.60;0.60;;;;;;;-3.32;100.00;101665.78;5092035;28;20468;-57
2024/01/19 06:49:12;;;;;;;0.60;0.60;;;;;;;-3.34;100.00;101663.84;5092282;28;20024;-57
2024/01/19 06:51:37;;;;;;;0.70;0.70;;;;;;;-3.41;100.00;101664.84;5092659;28;20063;-58
2024/01/19 06:54:03;;;;;;;0.75;0.75;;;;;;;-3.43;100.00;101671.41;5092045;28;20025;-58
2024/01/19 06:56:28;;;;;;;0.70;0.70;;;;;;;-3.49;100.00;101676.69;5092313;28;20032;-57
2024/01/19 06:58:54;;;;;;;0.65;0.65;;;;;;;-3.51;100.00;101669.72;5091614;28;20028;-57
2024/01/19 07:01:20;;;;;;;0.63;0.63;;;;;;;-3.54;100.00;101674.47;5091539;28;20063;-57
2024/01/19 07:03:45;;;;;;;0.77;0.77;;;;;;;-3.60;100.00;101692.41;5092392;28;20152;-58
2024/01/19 07:06:10;;;;;;;0.60;0.60;;;;;;;-3.62;100.00;101690.47;5092117;28;20032;-57
2024/01/19 07:08:36;;;;;;;0.60;0.60;;;;;;;-3.67;100.00;101695.94;5091657;28;20028;-57
2024/01/19 07:11:01;;;;;;;0.70;0.70;;;;;;;-3.69;100.00;101699.06;5092492;28;20031;-57
2024/01/19 07:13:26;;;;;;;0.60;0.60;;;;;;;-3.70;100.00;101705.69;5091900;28;20020;-57
2024/01/19 07:15:52;;;;;;;0.60;0.60;;;;;;;-3.71;100.00;101710.59;5091544;28;20055;-57
2024/01/19 07:18:17;;;;;;;0.63;0.63;;;;;;;-3.74;100.00;101721.25;5092026;28;20060;-57
2024/01/19 07:20:43;;;;;;;0.60;0.60;;;;;;;-3.76;100.00;101724.34;5092008;28;20024;-57
2024/01/19 07:23:08;;;;;;;0.70;0.70;;;;;;;-3.78;100.00;101724.19;5091154;28;20418;-57
2024/01/19 07:25:33;;;;;;;0.68;0.68;;;;;;;-3.80;100.00;101723.13;5092083;28;20031;-57
2024/01/19 07:27:59;;;;;;;0.60;0.60;;;;;;;-3.84;100.00;101724.44;5091522;28;20026;-57
2024/01/19 07:30:24;;;;;;;0.70;0.70;;;;;;;-3.83;100.00;101728.75;5090239;28;20036;-57
2024/01/19 07:32:49;;;;;;;0.60;0.60;;;;;;;-3.85;100.00;101725.22;5092844;28;20024;-57
2024/01/19 07:35:15;;;;;;;0.60;0.60;;;;;;;-3.87;100.00;101733.34;5094964;28;20533;-58
2024/01/19 07:37:40;;;;;;;0.65;0.65;;;;;;;-3.78;100.00;101731.75;5095333;28;20030;-57
2024/01/19 07:40:06;;;;;;;0.80;0.80;;;;;;;-3.88;100.00;101739.09;5095828;28;20380;-58
2024/01/19 07:42:31;;;;;;;0.70;0.70;;;;;;;-3.88;100.00;101734.94;5094910;28;20102;-57
2024/01/19 07:44:56;;;;;;;0.70;0.70;;;;;;;-3.90;100.00;101735.53;5094933;28;20027;-57
2024/01/19 07:47:22;;;;;;;0.60;0.60;;;;;;;-3.93;100.00;101741.16;5095381;28;20028;-57
2024/01/19 07:49:47;;;;;;;0.68;0.68;;;;;;;-3.98;100.00;101744.81;5095524;28;20036;-57
2024/01/19 07:52:12;;;;;;;0.70;0.70;;;;;;;-3.94;100.00;101751.06;5094409;28;20077;-57
2024/01/19 07:54:37;;;;;;;0.70;0.70;;;;;;;-3.95;100.00;101752.72;5095623;28;20032;-57
2024/01/19 07:57:03;;;;;;;0.60;0.60;;;;;;;-3.94;100.00;101753.59;5094325;28;20028;-57
2024/01/19 07:59:28;;;;;;;0.70;0.70;;;;;;;-3.97;100.00;101765.13;5095031;28;20094;-57
2024/01/19 08:01:54;;;;;;;0.70;0.70;;;;;;;-3.94;100.00;101764.53;5095403;28;20020;-58
2024/01/19 08:04:19;;;;;;;0.60;0.60;;;;;;;-3.94;100.00;101767.06;5093827;28;20024;-57
2024/01/19 08:06:44;;;;;;;0.70;0.70;;;;;;;-3.93;100.00;101773.00;5094787;28;20099;-57
2024/01/19 08:09:13;;;;;;;0.60;0.60;;;;;;;-3.92;100.00;101774.78;5094497;28;20067;-57
2024/01/19 08:11:39;;;;;;;0.70;0.70;;;;;;;-3.93;100.00;101775.53;5094140;28;20472;-57
2024/01/19 08:14:04;;;;;;;0.80;0.80;;;;;;;-3.91;100.00;101779.06;5095042;28;20048;-57
2024/01/19 08:16:29;;;;;;;0.80;0.80;;;;;;;-3.91;100.00;101789.16;5094906;28;20089;-57
2024/01/19 08:18:56;;;;;;;0.70;0.70;;;;;;;-3.89;100.00;101792.72;5094143;28;20028;-57
2024/01/19 08:21:21;;;;;;;0.70;0.70;;;;;;;-3.89;100.00;101792.72;5094321;28;20043;-57
2024/01/19 08:23:47;;;;;;;0.75;0.75;;;;;;;-3.81;100.00;101796.91;5094595;28;20476;-57
2024/01/19 08:26:12;;;;;;;0.70;0.70;;;;;;;-3.87;100.00;101794.66;5093799;28;20048;-57
2024/01/19 08:28:38;;;;;;;0.80;0.80;;;;;;;-3.84;100.00;101797.50;5093382;28;20498;-57
2024/01/19 08:31:03;;;;;;;0.63;0.63;;;;;;;-3.84;100.00;101792.44;5094193;28;20028;-57
2024/01/19 08:33:28;;;;;;;0.63;0.63;;;;;;;-3.80;100.00;101808.78;5093339;28;20032;-57
2024/01/19 08:35:54;;;;;;;0.60;0.60;;;;;;;-3.78;100.00;101796.34;5094363;28;20032;-57
2024/01/19 08:38:19;;;;;;;0.70;0.70;;;;;;;-3.75;100.00;101806.75;5094209;28;20038;-57
2024/01/19 08:40:44;;;;;;;0.60;0.60;;;;;;;-3.74;100.00;101814.44;5093832;28;20024;-57
2024/01/19 08:43:10;;;;;;;0.52;0.52;;;;;;;-3.66;100.00;101822.78;5093894;28;20069;-58
2024/01/19 08:45:35;;;;;;;0.70;0.70;;;;;;;-3.69;100.00;101823.38;5093189;28;20501;-59
2024/01/19 08:48:00;;;;;;;0.60;0.60;;;;;;;-3.58;100.00;101818.53;5093648;28;20024;-57
2024/01/19 08:50:27;;;;;;;0.70;0.70;;;;;;;-3.55;100.00;101816.31;5093671;28;20097;-57
2024/01/19 08:52:52;;;;;;;0.70;0.70;;;;;;;-3.48;100.00;101823.78;5094400;28;20058;-57
2024/01/19 08:55:17;;;;;;;0.60;0.60;;;;;;;-3.43;100.00;101825.13;5093533;28;20047;-57
2024/01/19 08:57:43;;;;;;;0.65;0.65;;;;;;;-3.38;100.00;101831.53;5094448;28;20035;-57
2024/01/19 09:00:09;;;;;;;0.63;0.63;;;;;;;-3.34;100.00;101833.63;5094140;28;20468;-57
2024/01/19 09:02:34;;;;;;;0.70;0.70;;;;;;;-3.29;100.00;101836.63;5093289;28;20024;-57
2024/01/19 09:04:59;;;;;;;0.60;0.60;;;;;;;-3.22;100.00;101841.53;5093933;28;20089;-57
2024/01/19 09:07:25;;;;;;;0.65;0.65;;;;;;;-3.17;100.00;101842.88;5093278;28;20032;-58
2024/01/19 09:09:50;;;;;;;0.70;0.70;;;;;;;-3.07;100.00;101847.22;5094103;28;20488;-58
2024/01/19 09:12:15;;;;;;;0.70;0.70;;;;;;;-2.99;100.00;101853.91;5094099;28;20024;-57
2024/01/19 09:14:41;;;;;;;0.60;0.60;;;;;;;-2.90;100.00;101853.09;5093370;28;20016;-57
2024/01/19 09:17:06;;;;;;;0.68;0.68;;;;;;;-2.82;100.00;101857.25;5094032;28;20027;-57
2024/01/19 09:19:31;;;;;;;0.68;0.68;;;;;;;-2.72;100.00;101862.47;5093450;28;20055;-57
2024/01/19 09:21:57;;;;;;;0.70;0.70;;;;;;;-2.60;100.00;101872.00;5093309;28;20028;-57
2024/01/19 09:24:22;;;;;;;0.60;0.60;;;;;;;-2.52;100.00;101874.53;5092421;28;20412;-57
2024/01/19 09:26:48;;;;;;;0.70;0.70;;;;;;;-2.42;100.00;101877.97;5093737;28;20029;-57
2024/01/19 09:29:13;;;;;;;0.63;0.63;;;;;;;-2.31;100.00;101874.88;5091160;28;20472;-57
2024/01/19 09:31:46;;;;;;;0.60;0.60;;;;;;;-2.29;100.00;101877.53;5093355;28;20107;-57
2024/01/19 09:34:11;;;;;;;0.70;0.70;;;;;;;-2.24;100.00;101883.94;5092797;28;20047;-57
2024/01/19 09:36:40;;;;;;;0.70;0.70;;;;;;;-2.20;100.00;101886.00;5092456;28;20051;-58
2024/01/19 09:39:06;;;;;;;0.60;0.60;;;;;;;-2.14;100.00;101896.72;5093414;28;20047;-57
2024/01/19 09:41:39;;;;;;;0.60;0.60;;;;;;;-2.09;100.00;101894.63;5092000;28;20044;-58
2024/01/19 09:44:12;;;;;;;0.60;0.60;;;;;;;-2.04;100.00;101893.44;5092769;28;20479;-57
2024/01/19 09:46:50;;;;;;;0.60;0.60;;;;;;;-1.96;100.00;101909.34;5093416;28;20107;-58
2024/01/19 09:49:27;;;;;;;0.60;0.60;;;;;;;-1.91;100.00;101913.19;5093285;28;20036;-58
2024/01/19 09:51:58;;;;;;;0.60;0.60;;;;;;;-1.82;100.00;101912.47;5093598;28;20024;-58
2024/01/19 09:54:35;;;;;;;0.60;0.60;;;;;;;-1.76;100.00;101921.38;5093076;28;20024;-58
2024/01/19 09:57:01;;;;;;;0.50;0.50;;;;;;;-1.71;100.00;101918.53;5092209;28;20032;-58
2024/01/19 09:59:30;;;;;;;0.65;0.65;;;;;;;-1.59;100.00;101920.47;5093084;28;20020;-58
2024/01/19 10:01:56;;;;;;;0.60;0.60;;;;;;;-1.48;100.00;101927.44;5093361;28;20085;-58
2024/01/19 10:04:23;;;;;;;0.57;0.57;;;;;;;-1.29;100.00;101934.25;5092020;28;20025;-58
2024/01/19 10:06:49;;;;;;;0.70;0.70;;;;;;;-1.13;100.00;101934.94;5093252;28;20383;-58
2024/01/19 10:09:15;;;;;;;0.60;0.60;;;;;;;-0.96;100.00;101938.19;5092831;28;20062;-58
2024/01/19 10:11:41;;;;;;;0.60;0.60;;;;;;;-0.77;100.00;101949.25;5092335;28;20055;-58
2024/01/19 10:14:06;;;;;;;0.60;0.60;;;;;;;-0.63;100.00;101940.41;5092976;28;20024;-58
2024/01/19 10:16:33;;;;;;;0.50;0.50;;;;;;;-0.41;100.00;101950.88;5092895;28;20020;-59
2024/01/19 10:19:02;;;;;;;0.60;0.60;;;;;;;-0.32;100.00;101944.84;5092260;28;20020;-58
2024/01/19 10:21:30;;;;;;;0.50;0.50;;;;;;;-0.19;100.00;101941.03;5092656;28;20027;-58
2024/01/19 10:24:12;;;;;;;0.60;0.60;;;;;;;-0.05;100.00;101938.88;5092988;28;20042;-58
2024/01/19 10:26:38;;;;;;;0.50;0.50;;;;;;;-0.01;100.00;101939.28;5092290;28;20047;-58
2024/01/19 10:29:16;;;;;;;0.50;0.50;;;;;;;0.04;100.00;101943.88;5092714;28;20063;-58
2024/01/19 10:31:45;;;;;;;0.60;0.60;;;;;;;-0.02;100.00;101947.63;5092074;28;20077;-58
2024/01/19 10:34:18;;;;;;;0.60;0.60;;;;;;;-0.01;100.00;101953.59;5092619;28;20024;-58
2024/01/19 10:36:44;;;;;;;0.57;0.57;;;;;;;0.05;100.00;101949.06;5092722;28;20024;-57
2024/01/19 10:39:21;;;;;;;0.60;0.60;;;;;;;0.10;100.00;101952.91;5091315;28;20031;-56
2024/01/19 10:41:48;;;;;;;0.50;0.50;;;;;;;0.11;100.00;101949.63;5092459;28;20032;-56
2024/01/19 10:44:17;;;;;;;0.57;0.57;;;;;;;0.25;100.00;101948.31;5090844;28;20024;-56
2024/01/19 10:46:43;;;;;;;0.40;0.40;;;;;;;0.33;100.00;101949.88;5091883;28;20016;-56
2024/01/19 10:49:10;;;;;;;0.40;0.40;;;;;;;0.46;100.00;101946.78;5092432;28;20045;-56
2024/01/19 10:51:42;;;;;;;0.40;0.40;;;;;;;0.59;100.00;101951.28;5092867;28;20024;-56
2024/01/19 10:54:10;;;;;;;0.50;0.50;;;;;;;0.81;100.00;101953.16;5092057;28;20028;-56
2024/01/19 10:56:36;;;;;;;0.40;0.40;;;;;;;0.75;100.00;101957.69;5092568;28;20381;-56
2024/01/19 10:59:15;;;;;;;0.50;0.50;;;;;;;1.06;100.00;101951.09;5092543;28;20063;-56
2024/01/19 11:01:40;;;;;;;0.52;0.52;;;;;;;1.10;100.00;101958.22;5091584;28;20024;-56
2024/01/19 11:04:08;;;;;;;0.55;0.55;;;;;;;1.19;100.00;101958.13;5092448;28;20027;-56
2024/01/19 11:06:36;;;;;;;0.40;0.40;;;;;;;1.33;100.00;101950.78;5091974;28;20503;-56
2024/01/19 11:09:06;;;;;;;0.43;0.43;;;;;;;1.52;100.00;101959.19;5094868;28;20111;-56
2024/01/19 11:11:35;;;;;;;0.50;0.50;;;;;;;1.76;100.00;101955.28;5095960;28;20020;-56